Portada
METAR-TAF:

METAR-TAF

Aeroports :

Pointe-Noire, Congo

latitud: 04-49S, longitud: 011-54E, altitud: 17 m

Observació

L'informe es va fer fa 1 hora i 16 minuts, a les 03:00 UTC
Vent 4 kt del Oest/Sud-Oest
Temperatura 23°C
Humitat 89%
Pressió 1013 hPa
Visibilitat: 8000 m
Núvols disperses a una alçada de 700 ft
Cel ennuvolat a una alçada de 2300 ft

METAR: FCPP 170300Z 24004KT 8000 SCT007 BKN023 23/21 Q1013 NOSIG

Hora: 05:16 (04:16 UTC)

Pronòstic

L'informe es va fer fa 5 hores i 16 minuts, a les 23:00 UTC
Pronòstic vàlid del 17 a les 00 UTC al 17 a les 24 UTC
Vent 4 kt del Oest/Sud-Oest
Visibilitat: 8000 m
Núvols disperses a una alçada de 1300 ft
Cel ennuvolat a una alçada de 2000 ft
Evolucionant progressivament
l' 17 a les 01 UTC al 17 a les 03 UTC
Visibilitat: 4000 m
boirina
Evolucionant progressivament
l' 17 a les 05 UTC al 17 a les 07 UTC
Visibilitat: 7000 m

TAF: FCPP 162300Z 1700/1724 24004KT 8000 SCT013 BKN020 BECMG 1701/1703 4000 BR BECMG 1705/1707 7000 NSW

Observacions i pronòstics meteorològics de més de 4000 aeroports (METAR i TAF).

Les estacions disponibles són els punts grocs i vermells al mapa.

Posi el ratolí al punt desitjat per veure el nom de l'estació.

Feu clic per veure les observacions i els pronòstics meteorològics.

Per canviar el mapa: feu clic els botons verds amb una creu de color negre per apropar; al botó verd amb un guió per allunyar la imatge; o en les fletxes verdes per a mapes adjacents.


METAR-TAF: